Time;durP1;ratioP1;P1;durP2;ratioP2;P2;SDS_P1;SDS_P2;PMS_P1;PMS_P2;Temp;Humidity;BMP_temperature;BMP_pressure;BME280_temperature;BME280_humidity;BME280_pressure;Samples;Min_cycle;Max_cycle;Signal;HPM_P1;HPM_P2
2021/12/01 00:03:45;;;;;;;;;;;9.70;99.90;;;;;;10284125;28;83943;-48
2021/12/01 00:08:46;;;;;;;;;;;9.60;99.90;;;;;;10281807;28;84683;-47
2021/12/01 00:13:46;;;;;;;;;;;9.60;99.90;;;;;;10279264;28;85867;-47
2021/12/01 00:18:47;;;;;;;;;;;9.70;99.90;;;;;;10278127;28;85115;-50
2021/12/01 00:23:47;;;;;;;;;;;9.70;99.90;;;;;;10277822;28;84249;-49
2021/12/01 00:28:48;;;;;;;;;;;9.70;99.90;;;;;;10283172;28;84379;-47
2021/12/01 00:33:48;;;;;;;;;;;9.80;99.90;;;;;;10282458;28;84254;-46
2021/12/01 00:38:49;;;;;;;;;;;9.80;99.90;;;;;;10282700;28;84197;-47
2021/12/01 00:43:50;;;;;;;;;;;9.80;99.90;;;;;;10280884;28;85485;-46
2021/12/01 00:48:50;;;;;;;;;;;9.70;99.90;;;;;;10282322;28;83766;-48
2021/12/01 00:53:51;;;;;;;;;;;9.70;99.90;;;;;;10282212;28;84102;-49
2021/12/01 00:58:51;;;;;;;;;;;9.70;99.90;;;;;;10280508;28;84516;-47
2021/12/01 01:03:52;;;;;;;;;;;9.70;99.90;;;;;;10282202;28;84060;-47
2021/12/01 01:08:53;;;;;;;;;;;9.70;99.90;;;;;;10279909;28;85186;-47
2021/12/01 01:19:13;;;;;;;;;;;9.80;99.90;;;;;;10285540;28;84132;-49
2021/12/01 01:24:14;;;;;;;;;;;9.80;99.90;;;;;;10287428;28;85709;-47
2021/12/01 01:29:20;;;;;;;;;;;9.80;99.90;;;;;;10288635;28;84289;-46
2021/12/01 01:34:21;;;;;;;;;;;9.80;99.90;;;;;;10288768;28;84007;-46
2021/12/01 01:39:22;;;;;;;;;;;9.80;99.90;;;;;;10270480;28;85213;-46
2021/12/01 01:44:22;;;;;;;;;;;9.80;99.90;;;;;;10286601;28;83767;-47
2021/12/01 01:49:38;;;;;;;;;;;9.80;99.90;;;;;;10286818;28;85006;-46
2021/12/01 01:54:39;;;;;;;;;;;9.80;99.90;;;;;;10287782;28;83754;-50
2021/12/01 01:59:39;;;;;;;;;;;9.80;99.90;;;;;;10285491;28;86426;-46
2021/12/01 02:04:40;;;;;;;;;;;9.80;99.90;;;;;;10287318;28;84630;-46
2021/12/01 02:09:40;;;;;;;;;;;9.80;99.90;;;;;;10287010;28;84064;-49
2021/12/01 02:14:41;;;;;;;;;;;9.70;99.90;;;;;;10287099;28;83635;-50
2021/12/01 02:19:42;;;;;;;;;;;9.70;99.90;;;;;;10287409;28;84149;-48
2021/12/01 02:24:45;;;;;;;;;;;9.60;99.90;;;;;;10269352;28;86057;-47
2021/12/01 02:29:45;;;;;;;;;;;9.50;99.90;;;;;;10284405;28;85166;-49
2021/12/01 02:34:46;;;;;;;;;;;9.50;99.90;;;;;;10286542;28;84399;-48
2021/12/01 02:39:49;;;;;;;;;;;9.50;99.90;;;;;;10341304;22;84173;-48
2021/12/01 02:44:49;;;;;;;;;;;9.50;99.90;;;;;;10407363;28;83867;-47
2021/12/01 02:49:51;;;;;;;;;;;9.50;99.90;;;;;;10408564;28;84104;-53
2021/12/01 02:54:53;;;;;;;;;;;9.50;99.90;;;;;;10408432;28;83345;-53
2021/12/01 02:59:53;;;;;;;;;;;9.50;99.90;;;;;;10408053;28;83380;-50
2021/12/01 03:04:54;;;;;;;;;;;9.50;99.90;;;;;;10405623;28;85526;-48
2021/12/01 03:09:54;;;;;;;;;;;9.50;99.90;;;;;;10407995;28;84136;-48
2021/12/01 03:14:55;;;;;;;;;;;9.50;99.90;;;;;;10408268;28;84175;-49
2021/12/01 03:19:56;;;;;;;;;;;9.50;99.90;;;;;;10406887;28;83580;-49
2021/12/01 03:24:57;;;;;;;;;;;9.40;99.90;;;;;;10408449;28;84050;-51
2021/12/01 03:29:57;;;;;;;;;;;9.40;99.90;;;;;;10405653;28;84278;-50
2021/12/01 03:34:58;;;;;;;;;;;9.30;99.90;;;;;;10407481;28;84114;-48
2021/12/01 03:39:59;;;;;;;;;;;9.30;99.90;;;;;;10406273;28;84541;-49
2021/12/01 03:44:59;;;;;;;;;;;9.20;99.90;;;;;;10404961;28;85002;-50
2021/12/01 03:50:00;;;;;;;;;;;9.20;99.90;;;;;;10406334;28;83916;-48
2021/12/01 03:55:01;;;;;;;;;;;9.20;99.90;;;;;;10406542;28;84039;-52
2021/12/01 04:00:04;;;;;;;;;;;9.20;99.90;;;;;;10406485;28;83509;-45
2021/12/01 04:05:12;;;;;;;;;;;9.10;99.90;;;;;;10405091;28;83679;-47
2021/12/01 04:10:14;;;;;;;;;;;9.10;99.90;;;;;;10405322;28;84305;-53
2021/12/01 04:15:15;;;;;;;;;;;9.10;99.90;;;;;;10406233;28;83659;-52
2021/12/01 04:20:16;;;;;;;;;;;9.20;99.90;;;;;;10405150;28;83900;-49
2021/12/01 04:25:17;;;;;;;;;;;9.10;99.90;;;;;;10405655;28;84226;-48
2021/12/01 04:30:21;;;;;;;;;;;9.10;99.90;;;;;;10404755;28;84096;-48
2021/12/01 04:35:24;;;;;;;;;;;9.00;99.90;;;;;;10405256;28;84096;-48
2021/12/01 04:40:25;;;;;;;;;;;9.10;99.90;;;;;;10404017;28;83822;-50
2021/12/01 04:45:27;;;;;;;;;;;9.00;99.90;;;;;;10404091;28;83962;-49
2021/12/01 04:50:28;;;;;;;;;;;9.00;99.90;;;;;;10404130;28;84822;-51
2021/12/01 04:55:28;;;;;;;;;;;8.90;99.90;;;;;;10403704;28;83668;-49
2021/12/01 05:00:29;;;;;;;;;;;8.90;99.90;;;;;;10404229;28;83784;-49
2021/12/01 05:05:30;;;;;;;;;;;8.90;99.90;;;;;;10403579;28;85309;-49
2021/12/01 05:10:30;;;;;;;;;;;8.90;99.90;;;;;;10384672;28;84117;-49
2021/12/01 05:15:31;;;;;;;;;;;8.90;99.90;;;;;;10351829;28;83802;-49
2021/12/01 05:20:31;;;;;;;;;;;8.80;99.90;;;;;;10341171;28;84495;-54
2021/12/01 05:25:32;;;;;;;;;;;8.90;99.90;;;;;;10341441;28;83540;-47
2021/12/01 05:30:33;;;;;;;;;;;8.80;99.90;;;;;;10342564;28;83833;-53
2021/12/01 05:35:34;;;;;;;;;;;8.80;99.90;;;;;;10340692;28;83970;-48
2021/12/01 05:40:34;;;;;;;;;;;8.80;99.90;;;;;;10340095;28;84206;-48
2021/12/01 05:45:36;;;;;;;;;;;8.80;99.90;;;;;;10341131;28;84177;-47
2021/12/01 05:50:36;;;;;;;;;;;8.70;99.90;;;;;;10342005;28;84236;-47
2021/12/01 05:55:37;;;;;;;;;;;8.60;99.90;;;;;;10339122;28;83824;-49
2021/12/01 06:00:38;;;;;;;;;;;8.70;99.90;;;;;;10358747;28;84424;-49
2021/12/01 06:05:39;;;;;;;;;;;8.60;99.90;;;;;;10362607;28;83771;-47
2021/12/01 06:10:40;;;;;;;;;;;8.60;99.90;;;;;;10391559;28;83899;-50
2021/12/01 06:15:41;;;;;;;;;;;8.60;99.90;;;;;;10379233;28;83846;-48
2021/12/01 06:20:42;;;;;;;;;;;8.60;99.90;;;;;;10369341;28;84067;-52
2021/12/01 06:25:42;;;;;;;;;;;8.70;99.90;;;;;;10368010;28;86201;-53
2021/12/01 06:30:43;;;;;;;;;;;8.60;99.90;;;;;;10361876;28;83528;-46
2021/12/01 06:35:48;;;;;;;;;;;8.70;99.90;;;;;;10380447;28;83804;-48
2021/12/01 06:40:49;;;;;;;;;;;8.70;99.90;;;;;;10361588;28;83766;-48
2021/12/01 06:45:49;;;;;;;;;;;8.60;99.90;;;;;;10381214;28;84068;-50
2021/12/01 06:50:50;;;;;;;;;;;8.50;99.90;;;;;;10378165;28;84112;-48
2021/12/01 06:55:51;;;;;;;;;;;8.30;99.90;;;;;;10400678;28;84420;-48
2021/12/01 07:00:51;;;;;;;;;;;8.30;99.90;;;;;;10398256;28;84513;-47
2021/12/01 07:05:52;;;;;;;;;;;8.30;99.90;;;;;;10367824;28;83936;-48
2021/12/01 07:10:52;;;;;;;;;;;8.30;99.90;;;;;;10368433;28;84068;-47
2021/12/01 07:15:53;;;;;;;;;;;8.20;99.90;;;;;;10367778;28;83859;-48
2021/12/01 07:20:53;;;;;;;;;;;8.20;99.90;;;;;;10339648;28;84061;-45
2021/12/01 07:25:54;;;;;;;;;;;8.10;99.90;;;;;;10326249;28;83949;-45
2021/12/01 07:30:55;;;;;;;;;;;8.00;99.90;;;;;;10327133;28;83678;-46
2021/12/01 07:35:55;;;;;;;;;;;8.00;99.90;;;;;;10326941;28;83752;-47
2021/12/01 07:40:56;;;;;;;;;;;8.00;99.90;;;;;;10325925;28;83553;-50
2021/12/01 07:45:56;;;;;;;;;;;8.00;99.90;;;;;;10325458;28;84042;-45
2021/12/01 07:50:57;;;;;;;;;;;8.00;99.90;;;;;;10345779;28;84335;-45
2021/12/01 07:55:57;;;;;;;;;;;7.90;99.90;;;;;;10366784;28;84202;-44
2021/12/01 08:00:58;;;;;;;;;;;7.90;99.90;;;;;;10366426;28;83763;-45
2021/12/01 08:05:58;;;;;;;;;;;7.90;99.90;;;;;;10366016;28;83766;-44
2021/12/01 08:10:59;;;;;;;;;;;7.90;99.90;;;;;;10365558;28;84306;-44
2021/12/01 08:16:00;;;;;;;;;;;7.90;99.90;;;;;;10354641;28;83967;-43
2021/12/01 08:21:01;;;;;;;;;;;7.90;99.90;;;;;;10351695;28;84443;-47
2021/12/01 08:26:01;;;;;;;;;;;8.00;99.90;;;;;;10321717;28;86815;-49
2021/12/01 08:31:02;;;;;;;;;;;7.90;99.90;;;;;;10323744;28;84182;-48
2021/12/01 08:36:02;;;;;;;;;;;7.90;99.90;;;;;;10335410;28;86000;-45
2021/12/01 08:41:03;;;;;;;;;;;7.90;99.90;;;;;;10363042;28;83940;-46
2021/12/01 08:46:05;;;;;;;;;;;8.00;99.90;;;;;;10340928;28;83998;-48
2021/12/01 08:51:06;;;;;;;;;;;8.00;99.90;;;;;;10347483;28;83805;-46
2021/12/01 08:56:07;;;;;;;;;;;8.10;99.90;;;;;;10323438;28;84146;-50
2021/12/01 09:01:08;;;;;;;;;;;8.10;99.90;;;;;;10326752;28;84512;-45
2021/12/01 09:06:08;;;;;;;;;;;8.20;99.90;;;;;;10323498;28;83740;-47
2021/12/01 09:11:09;;;;;;;;;;;8.30;99.90;;;;;;10326230;28;83941;-50
2021/12/01 09:16:09;;;;;;;;;;;8.30;99.90;;;;;;10337654;28;84132;-48
2021/12/01 09:21:10;;;;;;;;;;;8.40;99.90;;;;;;10368862;28;83932;-45
2021/12/01 09:26:10;;;;;;;;;;;8.50;99.90;;;;;;10368996;28;84045;-44
2021/12/01 09:31:11;;;;;;;;;;;8.50;99.90;;;;;;10369126;28;83995;-43
2021/12/01 09:36:12;;;;;;;;;;;8.60;99.90;;;;;;10368625;28;84121;-44
2021/12/01 09:41:12;;;;;;;;;;;8.60;99.90;;;;;;10373364;28;83714;-43
2021/12/01 09:46:13;;;;;;;;;;;8.70;99.90;;;;;;10376086;28;84039;-46
2021/12/01 09:51:16;;;;;;;;;;;8.80;99.90;;;;;;10373340;28;85146;-43
2021/12/01 09:56:17;;;;;;;;;;;8.80;99.90;;;;;;10373320;28;85182;-44
2021/12/01 10:01:18;;;;;;;;;;;8.90;99.90;;;;;;10372804;28;84826;-44
2021/12/01 10:06:23;;;;;;;;;;;8.90;99.90;;;;;;10352156;28;84206;-47
2021/12/01 10:11:25;;;;;;;;;;;8.90;99.90;;;;;;10353145;28;83767;-44
2021/12/01 10:16:28;;;;;;;;;;;9.00;99.90;;;;;;10350016;28;83637;-45
2021/12/01 10:21:28;;;;;;;;;;;8.90;99.90;;;;;;10337780;28;84195;-44
2021/12/01 10:26:31;;;;;;;;;;;9.00;99.90;;;;;;10370135;28;83722;-48
2021/12/01 10:31:42;;;;;;;;;;;9.00;99.90;;;;;;10373345;28;84121;-47
2021/12/01 10:36:43;;;;;;;;;;;9.10;99.90;;;;;;10373040;28;84159;-48
2021/12/01 10:41:44;;;;;;;;;;;9.20;99.90;;;;;;10371336;28;85143;-46
2021/12/01 10:46:49;;;;;;;;;;;9.30;99.90;;;;;;10358182;28;84116;-46
2021/12/01 10:51:50;;;;;;;;;;;9.30;99.90;;;;;;10371505;28;83819;-48
2021/12/01 10:57:09;;;;;;;;;;;9.30;99.90;;;;;;10372442;28;84182;-49
2021/12/01 11:02:11;;;;;;;;;;;9.30;99.90;;;;;;10372607;28;83760;-46
2021/12/01 11:07:28;;;;;;;;;;;9.30;99.90;;;;;;10372621;28;83832;-45
2021/12/01 11:12:29;;;;;;;;;;;9.30;99.90;;;;;;10371962;28;84855;-45
2021/12/01 11:17:39;;;;;;;;;;;9.30;99.90;;;;;;10359861;28;85161;-47
2021/12/01 11:22:40;;;;;;;;;;;9.20;99.90;;;;;;10351959;28;83976;-50
2021/12/01 11:27:40;;;;;;;;;;;9.20;99.90;;;;;;10360040;28;84113;-48
2021/12/01 11:32:41;;;;;;;;;;;9.20;99.90;;;;;;10329789;28;84721;-46
2021/12/01 11:37:41;;;;;;;;;;;9.10;99.90;;;;;;10330237;28;83840;-44
2021/12/01 11:42:42;;;;;;;;;;;9.10;99.90;;;;;;10330276;28;83801;-46
2021/12/01 11:47:47;;;;;;;;;;;9.30;99.90;;;;;;10329329;28;83980;-45
2021/12/01 11:53:10;;;;;;;;;;;9.30;99.90;;;;;;10330031;28;83901;-47
2021/12/01 11:58:10;;;;;;;;;;;9.40;99.90;;;;;;10329459;28;84114;-48
2021/12/01 12:03:25;;;;;;;;;;;9.50;99.90;;;;;;10342410;28;84116;-57
2021/12/01 12:08:45;;;;;;;;;;;9.60;99.90;;;;;;10334397;28;85142;-58
2021/12/01 12:13:58;;;;;;;;;;;9.70;99.90;;;;;;10359509;28;83573;-57
2021/12/01 12:18:59;;;;;;;;;;;9.90;99.90;;;;;;10369096;28;85909;-51
2021/12/01 12:24:16;;;;;;;;;;;9.80;99.90;;;;;;10370807;28;83268;-53
2021/12/01 12:29:22;;;;;;;;;;;9.80;99.90;;;;;;10368986;28;85202;-54
2021/12/01 12:34:24;;;;;;;;;;;9.80;99.90;;;;;;10335464;28;85124;-58
2021/12/01 12:39:28;;;;;;;;;;;10.00;99.90;;;;;;10328202;28;83349;-55
2021/12/01 12:44:48;;;;;;;;;;;10.10;99.90;;;;;;10328999;28;84308;-52
2021/12/01 12:49:50;;;;;;;;;;;10.00;99.90;;;;;;10331717;28;84295;-57
2021/12/01 12:54:58;;;;;;;;;;;9.60;99.90;;;;;;10362694;28;83257;-60
2021/12/01 13:00:31;;;;;;;;;;;9.30;99.90;;;;;;10369659;28;84995;-61
2021/12/01 13:05:33;;;;;;;;;;;9.30;99.90;;;;;;10309833;28;84151;-62
2021/12/01 13:10:39;;;;;;;;;;;9.20;99.90;;;;;;10327197;28;84351;-55
2021/12/01 13:15:41;;;;;;;;;;;9.10;99.90;;;;;;10349386;28;83928;-56
2021/12/01 13:20:43;;;;;;;;;;;9.10;99.90;;;;;;10334842;28;84843;-60
2021/12/01 13:25:56;;;;;;;;;;;9.10;99.90;;;;;;10333714;28;84326;-51
2021/12/01 13:31:05;;;;;;;;;;;9.20;99.90;;;;;;10342723;28;83342;-60
2021/12/01 13:36:15;;;;;;;;;;;9.20;99.90;;;;;;10353387;28;83315;-52
2021/12/01 13:41:17;;;;;;;;;;;9.20;99.90;;;;;;10359427;28;84173;-56
2021/12/01 13:46:18;;;;;;;;;;;9.30;99.90;;;;;;10343537;28;83144;-58
2021/12/01 13:51:19;;;;;;;;;;;9.30;99.90;;;;;;10347902;28;86387;-52
2021/12/01 13:56:21;;;;;;;;;;;9.20;99.90;;;;;;10375552;28;83884;-60
2021/12/01 14:01:21;;;;;;;;;;;9.20;99.90;;;;;;10350684;28;83306;-60
2021/12/01 14:06:26;;;;;;;;;;;9.10;99.90;;;;;;10333979;28;84100;-55
2021/12/01 14:11:45;;;;;;;;;;;9.10;99.90;;;;;;10334483;28;83560;-58
2021/12/01 14:16:47;;;;;;;;;;;9.10;99.90;;;;;;10334411;28;84123;-55
2021/12/01 14:21:48;;;;;;;;;;;9.20;99.90;;;;;;10334341;28;83629;-61
2021/12/01 14:26:49;;;;;;;;;;;9.10;99.90;;;;;;10332339;28;83225;-58
2021/12/01 14:31:59;;;;;;;;;;;9.10;99.90;;;;;;10335181;28;83337;-53
2021/12/01 14:37:00;;;;;;;;;;;9.10;99.90;;;;;;10332676;28;84209;-57
2021/12/01 14:42:01;;;;;;;;;;;9.10;99.90;;;;;;10350968;28;84234;-51
2021/12/01 14:47:06;;;;;;;;;;;9.00;99.90;;;;;;10353093;28;83219;-53
2021/12/01 14:52:08;;;;;;;;;;;9.00;99.90;;;;;;10361289;28;84123;-59
2021/12/01 14:57:10;;;;;;;;;;;8.90;99.90;;;;;;10372771;28;83222;-59
2021/12/01 15:02:20;;;;;;;;;;;8.90;99.90;;;;;;10359189;28;84317;-55
2021/12/01 15:07:20;;;;;;;;;;;8.90;99.90;;;;;;10351322;28;83970;-58
2021/12/01 15:12:28;;;;;;;;;;;8.90;99.90;;;;;;10346998;28;84133;-55
2021/12/01 15:17:30;;;;;;;;;;;8.90;99.90;;;;;;10350889;28;84557;-55
2021/12/01 15:22:30;;;;;;;;;;;8.80;99.90;;;;;;10351573;28;83294;-57
2021/12/01 15:27:31;;;;;;;;;;;8.80;99.90;;;;;;10353538;28;83444;-57
2021/12/01 15:32:32;;;;;;;;;;;8.70;99.90;;;;;;10349234;28;83786;-57
2021/12/01 15:37:32;;;;;;;;;;;8.60;99.90;;;;;;10366592;28;84350;-52
2021/12/01 15:42:33;;;;;;;;;;;8.50;99.90;;;;;;10371856;28;83411;-51
2021/12/01 15:47:33;;;;;;;;;;;8.40;99.90;;;;;;10361830;28;83380;-53
2021/12/01 15:52:34;;;;;;;;;;;8.30;99.90;;;;;;10332595;28;83335;-57
2021/12/01 15:57:35;;;;;;;;;;;8.20;99.90;;;;;;10354195;28;83450;-54
2021/12/01 16:02:35;;;;;;;;;;;8.10;99.90;;;;;;10382826;22;84317;-52
2021/12/01 16:07:36;;;;;;;;;;;7.90;99.90;;;;;;10344593;28;84313;-52
2021/12/01 16:12:37;;;;;;;;;;;7.80;99.90;;;;;;10310625;28;85069;-49
2021/12/01 16:17:39;;;;;;;;;;;7.80;99.90;;;;;;10325903;28;83780;-52
2021/12/01 16:22:42;;;;;;;;;;;7.80;99.90;;;;;;10338607;28;83354;-47
2021/12/01 16:27:44;;;;;;;;;;;7.80;99.90;;;;;;10367528;28;85500;-56
2021/12/01 16:32:50;;;;;;;;;;;7.90;99.90;;;;;;10383950;28;84267;-48
2021/12/01 16:37:51;;;;;;;;;;;7.90;99.90;;;;;;10367230;28;83673;-49
2021/12/01 16:42:52;;;;;;;;;;;7.90;99.90;;;;;;10368159;28;83894;-50
2021/12/01 16:47:53;;;;;;;;;;;7.90;99.90;;;;;;10367082;28;83788;-49
2021/12/01 16:52:54;;;;;;;;;;;7.80;99.90;;;;;;10363016;28;84059;-51
2021/12/01 16:57:54;;;;;;;;;;;7.80;99.90;;;;;;10322581;28;84117;-52
2021/12/01 17:02:55;;;;;;;;;;;7.70;99.90;;;;;;10319027;28;83236;-54
2021/12/01 17:12:59;;;;;;;;;;;7.70;99.90;;;;;;10296967;28;83832;-56
2021/12/01 17:18:00;;;;;;;;;;;7.60;99.90;;;;;;10320776;28;85196;-52
2021/12/01 17:23:01;;;;;;;;;;;7.70;99.90;;;;;;10300655;28;83455;-54
2021/12/01 17:28:02;;;;;;;;;;;7.60;99.90;;;;;;10316856;28;83604;-54
2021/12/01 17:33:02;;;;;;;;;;;7.50;99.90;;;;;;10325119;28;83350;-53
2021/12/01 17:38:03;;;;;;;;;;;7.30;99.90;;;;;;10324115;28;84068;-50
2021/12/01 17:43:03;;;;;;;;;;;7.10;99.90;;;;;;10322945;28;84141;-51
2021/12/01 17:48:04;;;;;;;;;;;7.00;99.90;;;;;;10324768;28;83625;-54
2021/12/01 17:53:05;;;;;;;;;;;7.00;99.90;;;;;;10323566;28;83474;-56
2021/12/01 17:58:06;;;;;;;;;;;7.00;99.90;;;;;;10322856;28;83219;-55
2021/12/01 18:03:08;;;;;;;;;;;7.00;99.90;;;;;;10329132;28;84963;-52
2021/12/01 18:08:09;;;;;;;;;;;7.00;99.90;;;;;;10329891;28;83524;-53
2021/12/01 18:13:10;;;;;;;;;;;7.00;99.90;;;;;;10330217;28;83437;-54
2021/12/01 18:18:11;;;;;;;;;;;7.00;99.90;;;;;;10329945;28;84038;-53
2021/12/01 18:23:12;;;;;;;;;;;6.90;99.90;;;;;;10331135;28;83840;-52
2021/12/01 18:28:13;;;;;;;;;;;6.90;99.90;;;;;;10328993;28;84181;-57
2021/12/01 18:33:13;;;;;;;;;;;6.90;99.90;;;;;;10331203;28;83437;-55
2021/12/01 18:38:14;;;;;;;;;;;6.90;99.90;;;;;;10329816;28;84242;-56
2021/12/01 18:43:14;;;;;;;;;;;6.90;99.90;;;;;;10326964;28;84987;-52
2021/12/01 18:48:15;;;;;;;;;;;6.90;99.90;;;;;;10329670;28;84104;-53
2021/12/01 18:53:16;;;;;;;;;;;6.80;99.90;;;;;;10328570;28;84595;-57
2021/12/01 18:58:17;;;;;;;;;;;6.80;99.90;;;;;;10330602;28;84067;-57
2021/12/01 19:03:17;;;;;;;;;;;6.70;99.90;;;;;;10329027;28;84240;-52
2021/12/01 19:08:18;;;;;;;;;;;6.60;99.90;;;;;;10326704;28;83336;-53
2021/12/01 19:13:19;;;;;;;;;;;6.50;99.90;;;;;;10327026;28;83306;-53
2021/12/01 19:18:19;;;;;;;;;;;6.40;99.90;;;;;;10326981;28;84132;-57
2021/12/01 19:23:20;;;;;;;;;;;6.40;99.90;;;;;;10326578;28;84112;-60
2021/12/01 19:28:21;;;;;;;;;;;6.40;99.90;;;;;;10327267;28;84263;-57
2021/12/01 19:33:24;;;;;;;;;;;6.30;99.90;;;;;;10318471;28;84163;-57
2021/12/01 19:38:25;;;;;;;;;;;6.30;99.90;;;;;;10321419;28;84113;-54
2021/12/01 19:43:25;;;;;;;;;;;6.30;99.90;;;;;;10325669;28;84012;-54
2021/12/01 19:48:26;;;;;;;;;;;6.30;99.90;;;;;;10337918;28;85347;-55
2021/12/01 19:53:26;;;;;;;;;;;6.20;99.90;;;;;;10327712;28;83101;-53
2021/12/01 19:58:27;;;;;;;;;;;6.30;99.90;;;;;;10319818;28;84664;-56
2021/12/01 20:03:27;;;;;;;;;;;6.20;99.90;;;;;;10325384;28;84357;-57
2021/12/01 20:08:32;;;;;;;;;;;6.10;99.90;;;;;;10326649;28;83483;-57
2021/12/01 20:13:34;;;;;;;;;;;6.20;99.90;;;;;;10326020;28;85551;-58
2021/12/01 20:18:35;;;;;;;;;;;6.10;99.90;;;;;;10326965;28;84038;-57
2021/12/01 20:23:37;;;;;;;;;;;6.10;99.90;;;;;;10320906;28;86173;-55
2021/12/01 20:28:40;;;;;;;;;;;6.00;99.90;;;;;;10336355;28;84161;-55
2021/12/01 20:33:41;;;;;;;;;;;6.00;99.90;;;;;;10328229;28;84612;-55
2021/12/01 20:38:52;;;;;;;;;;;6.10;99.90;;;;;;10328010;28;83934;-58
2021/12/01 20:43:53;;;;;;;;;;;6.20;99.90;;;;;;10328675;28;83341;-55
2021/12/01 20:54:11;;;;;;;;;;;6.30;99.90;;;;;;10314474;28;83556;-53
2021/12/01 20:59:24;;;;;;;;;;;6.30;99.90;;;;;;10312299;28;83576;-56
2021/12/01 21:04:27;;;;;;;;;;;6.40;99.90;;;;;;10306927;28;83155;-54
2021/12/01 21:09:34;;;;;;;;;;;6.40;99.90;;;;;;10301879;28;83978;-56
2021/12/01 21:14:36;;;;;;;;;;;6.30;99.90;;;;;;10306809;28;83405;-55
2021/12/01 21:19:37;;;;;;;;;;;6.30;99.90;;;;;;10309700;28;83476;-54
2021/12/01 21:24:37;;;;;;;;;;;6.30;99.90;;;;;;10314932;28;84491;-55
2021/12/01 21:29:46;;;;;;;;;;;6.30;99.90;;;;;;10304328;28;86104;-56
2021/12/01 21:34:49;;;;;;;;;;;6.20;99.90;;;;;;10311854;28;83356;-52
2021/12/01 21:39:51;;;;;;;;;;;6.10;99.90;;;;;;10310245;28;83951;-55
2021/12/01 21:44:52;;;;;;;;;;;6.00;99.90;;;;;;10324668;28;83875;-55
2021/12/01 21:49:53;;;;;;;;;;;6.00;99.90;;;;;;10316420;28;84089;-56
2021/12/01 21:54:54;;;;;;;;;;;5.90;99.90;;;;;;10316392;28;83263;-56
2021/12/01 21:59:56;;;;;;;;;;;5.90;99.90;;;;;;10331509;22;84258;-58
2021/12/01 22:04:57;;;;;;;;;;;5.90;99.90;;;;;;10334139;28;84391;-58
2021/12/01 22:09:57;;;;;;;;;;;5.80;99.90;;;;;;10344114;28;84029;-57
2021/12/01 22:14:59;;;;;;;;;;;5.80;99.90;;;;;;10373869;28;85148;-57
2021/12/01 22:20:01;;;;;;;;;;;5.70;99.90;;;;;;10373551;28;84121;-58
2021/12/01 22:25:03;;;;;;;;;;;5.70;99.90;;;;;;10375044;28;83239;-58
2021/12/01 22:30:06;;;;;;;;;;;5.70;99.90;;;;;;10374205;28;83368;-60
2021/12/01 22:35:08;;;;;;;;;;;5.70;99.90;;;;;;10374793;28;83350;-59
2021/12/01 22:40:14;;;;;;;;;;;5.70;99.90;;;;;;10374098;28;85888;-61
2021/12/01 22:45:15;;;;;;;;;;;5.70;99.90;;;;;;10373749;28;84156;-58
2021/12/01 22:50:19;;;;;;;;;;;5.70;99.90;;;;;;10374237;28;84071;-61
2021/12/01 22:55:20;;;;;;;;;;;5.70;99.90;;;;;;10373702;28;83179;-58
2021/12/01 23:00:24;;;;;;;;;;;5.60;99.90;;;;;;10373162;28;83323;-61
2021/12/01 23:05:24;;;;;;;;;;;5.60;99.90;;;;;;10376260;28;83268;-57
2021/12/01 23:10:27;;;;;;;;;;;5.70;99.90;;;;;;10390898;28;83370;-62
2021/12/01 23:15:28;;;;;;;;;;;5.70;99.90;;;;;;10373983;28;85163;-54
2021/12/01 23:20:29;;;;;;;;;;;5.70;99.90;;;;;;10355219;28;85114;-60
2021/12/01 23:30:49;;;;;;;;;;;5.70;99.90;;;;;;10373511;28;83415;-60
2021/12/01 23:35:50;;;;;;;;;;;5.60;99.90;;;;;;10371109;28;84991;-61
2021/12/01 23:40:50;;;;;;;;;;;5.60;99.90;;;;;;10370635;28;85218;-59
2021/12/01 23:56:14;;;;;;;;;;;5.50;99.90;;;;;;10372521;28;84502;-63
